Time;durP1;ratioP1;P1;durP2;ratioP2;P2;SDS_P1;SDS_P2;PMS_P1;PMS_P2;Temp;Humidity;BMP_temperature;BMP_pressure;BME280_temperature;BME280_humidity;BME280_pressure;Samples;Min_cycle;Max_cycle;Signal;HPM_P1;HPM_P2
2022/05/21 00:00:21;;;;;;;4.53;2.22;;;16.00;99.90;;;;;;5044264;28;20021;-81
2022/05/21 00:02:49;;;;;;;8.85;2.58;;;16.00;99.90;;;;;;5046647;28;20021;-84
2022/05/21 00:05:16;;;;;;;3.63;2.08;;;16.00;99.90;;;;;;5047878;28;20029;-86
2022/05/21 00:07:43;;;;;;;4.85;2.40;;;15.90;99.90;;;;;;5041882;28;20033;-82
2022/05/21 00:10:10;;;;;;;4.97;2.05;;;15.80;99.90;;;;;;5053548;28;20033;-83
2022/05/21 00:12:35;;;;;;;4.13;2.08;;;16.20;99.90;;;;;;5051515;28;20465;-81
2022/05/21 00:15:02;;;;;;;4.00;2.00;;;15.90;99.90;;;;;;5053023;28;20566;-81
2022/05/21 00:17:27;;;;;;;3.03;1.80;;;15.80;99.90;;;;;;5052456;28;20036;-83
2022/05/21 00:19:53;;;;;;;4.38;1.70;;;15.70;99.90;;;;;;5052513;28;20026;-85
2022/05/21 00:22:18;;;;;;;3.75;2.00;;;15.70;99.90;;;;;;5051378;28;20107;-82
2022/05/21 00:24:44;;;;;;;3.90;1.73;;;15.70;99.90;;;;;;5044714;28;20055;-81
2022/05/21 00:27:10;;;;;;;4.40;2.00;;;15.60;99.90;;;;;;5059271;28;20029;-82
2022/05/21 00:29:35;;;;;;;5.10;2.70;;;15.60;99.90;;;;;;5052725;28;20034;-82
2022/05/21 00:32:02;;;;;;;4.00;2.25;;;15.60;99.90;;;;;;5048088;28;20036;-81
2022/05/21 00:34:28;;;;;;;4.18;2.13;;;15.50;99.90;;;;;;5051379;28;20020;-84
2022/05/21 00:36:54;;;;;;;6.95;2.30;;;15.40;99.90;;;;;;5040619;28;20735;-81
2022/05/21 00:39:20;;;;;;;6.93;2.33;;;15.40;99.90;;;;;;5048042;28;20044;-81
2022/05/21 00:41:45;;;;;;;7.47;2.53;;;15.30;99.90;;;;;;5048601;28;20033;-83
2022/05/21 00:44:11;;;;;;;4.70;2.40;;;15.30;99.90;;;;;;5053584;28;20036;-83
2022/05/21 00:46:40;;;;;;;4.57;2.80;;;15.40;99.90;;;;;;5051881;28;20111;-79
2022/05/21 00:49:15;;;;;;;5.68;2.90;;;15.30;99.90;;;;;;5046932;28;20139;-82
2022/05/21 00:52:00;;;;;;;6.07;2.90;;;15.30;99.90;;;;;;5069403;28;20060;-81
2022/05/21 00:54:34;;;;;;;6.45;2.95;;;15.30;99.90;;;;;;5049576;28;20032;-79
2022/05/21 00:57:09;;;;;;;5.53;2.80;;;15.20;99.90;;;;;;5047444;28;20025;-79
2022/05/21 00:59:51;;;;;;;6.10;2.80;;;15.20;99.90;;;;;;5044921;28;20073;-82
2022/05/21 01:02:31;;;;;;;3.95;2.42;;;15.10;99.90;;;;;;5051780;28;20637;-83
2022/05/21 01:04:57;;;;;;;5.07;3.20;;;15.10;99.90;;;;;;5049153;28;20048;-84
2022/05/21 01:07:25;;;;;;;5.35;2.78;;;15.10;99.90;;;;;;5053278;28;20029;-79
2022/05/21 01:09:54;;;;;;;5.20;2.42;;;15.10;99.90;;;;;;5055621;28;20505;-84
2022/05/21 01:12:25;;;;;;;5.43;2.80;;;15.10;99.90;;;;;;5056070;28;20021;-82
2022/05/21 01:14:55;;;;;;;5.85;2.63;;;15.10;99.90;;;;;;5061338;28;20028;-83
2022/05/21 01:17:21;;;;;;;4.18;2.67;;;15.00;99.90;;;;;;5054334;28;20312;-81
2022/05/21 01:20:09;;;;;;;4.82;2.67;;;15.00;99.90;;;;;;5055428;28;20037;-80
2022/05/21 01:22:43;;;;;;;3.40;2.25;;;15.00;99.90;;;;;;5058221;28;20044;-80
2022/05/21 01:25:10;;;;;;;4.88;2.70;;;15.00;99.90;;;;;;5059966;28;20184;-82
2022/05/21 01:27:36;;;;;;;7.25;4.35;;;15.00;99.90;;;;;;5058019;28;20052;-81
2022/05/21 01:30:05;;;;;;;7.10;2.85;;;15.00;99.90;;;;;;5057716;28;20024;-81
2022/05/21 01:32:31;;;;;;;5.20;2.88;;;15.10;99.90;;;;;;5058270;28;20037;-79
2022/05/21 01:34:56;;;;;;;4.97;2.80;;;15.00;99.90;;;;;;5058506;28;20670;-82
2022/05/21 01:37:23;;;;;;;3.70;1.95;;;14.90;99.90;;;;;;5054741;28;20120;-82
2022/05/21 01:39:48;;;;;;;5.18;2.85;;;14.90;99.90;;;;;;5059069;28;20032;-81
2022/05/21 01:42:14;;;;;;;6.30;2.80;;;14.90;99.90;;;;;;5061719;28;20025;-81
2022/05/21 01:44:40;;;;;;;5.78;2.90;;;14.90;99.90;;;;;;5059623;28;20395;-79
2022/05/21 01:47:12;;;;;;;5.25;2.90;;;14.90;99.90;;;;;;5056201;28;20024;-83
2022/05/21 01:49:39;;;;;;;5.40;2.63;;;15.00;99.90;;;;;;5058807;28;20043;-79
2022/05/21 01:52:06;;;;;;;3.95;2.60;;;14.90;99.90;;;;;;5059830;28;20053;-78
2022/05/21 01:54:32;;;;;;;5.10;2.40;;;14.80;99.90;;;;;;5041078;28;20097;-82
2022/05/21 01:56:59;;;;;;;4.45;2.80;;;14.60;99.90;;;;;;5058266;28;20108;-79
2022/05/21 01:59:26;;;;;;;6.07;2.40;;;14.60;99.90;;;;;;5052045;28;20025;-81
2022/05/21 02:01:52;;;;;;;6.50;3.92;;;14.50;99.90;;;;;;5057859;28;20025;-81
2022/05/21 02:04:18;;;;;;;6.25;3.50;;;14.50;99.90;;;;;;5057421;28;20120;-78
2022/05/21 02:06:44;;;;;;;4.90;2.80;;;14.50;99.90;;;;;;5053396;28;20049;-81
2022/05/21 02:09:11;;;;;;;5.63;3.17;;;15.10;99.90;;;;;;5052576;28;20025;-81
2022/05/21 02:11:37;;;;;;;4.63;2.90;;;15.30;99.90;;;;;;5051829;28;20056;-80
2022/05/21 02:14:03;;;;;;;6.00;2.90;;;14.50;99.90;;;;;;5056168;28;20056;-80
2022/05/21 02:16:29;;;;;;;8.27;3.70;;;;;;;;;;5055197;28;20033;-80
2022/05/21 02:18:54;;;;;;;6.95;4.03;;;14.20;99.90;;;;;;5057625;28;20021;-82
2022/05/21 02:21:20;;;;;;;7.63;4.40;;;15.80;99.90;;;;;;5060534;28;20277;-83
2022/05/21 02:23:46;;;;;;;6.07;3.90;;;14.10;99.90;;;;;;5056203;28;20037;-82
2022/05/21 02:26:12;;;;;;;6.78;4.00;;;14.00;99.90;;;;;;5058361;28;20033;-81
2022/05/21 02:28:38;;;;;;;6.50;3.85;;;14.00;99.90;;;;;;5059136;28;20033;-81
2022/05/21 02:31:04;;;;;;;9.07;4.07;;;14.00;99.90;;;;;;5038391;28;20028;-82
2022/05/21 02:33:30;;;;;;;7.75;4.55;;;14.30;99.90;;;;;;5053165;28;20064;-82
2022/05/21 02:35:56;;;;;;;6.50;3.90;;;14.10;99.90;;;;;;5057957;28;20021;-81
2022/05/21 02:41:12;;;;;;;11.38;4.13;;;14.10;99.90;;;;;;5055434;28;20055;-83
2022/05/21 02:43:38;;;;;;;7.88;3.95;;;14.10;99.90;;;;;;5061448;28;20128;-79
2022/05/21 02:46:04;;;;;;;5.97;3.95;;;14.10;99.90;;;;;;5049751;28;20117;-81
2022/05/21 02:48:30;;;;;;;6.60;4.25;;;14.10;99.90;;;;;;5056117;28;20055;-78
2022/05/21 02:50:56;;;;;;;7.90;3.83;;;14.10;99.90;;;;;;5051424;28;20039;-81
2022/05/21 02:53:22;;;;;;;6.45;3.88;;;14.10;99.90;;;;;;5052961;28;20064;-81
2022/05/21 02:55:50;;;;;;;7.05;3.88;;;14.10;99.90;;;;;;5055589;28;20094;-79
2022/05/21 02:58:16;;;;;;;8.05;3.40;;;14.20;99.90;;;;;;5056736;28;20386;-79
2022/05/21 03:00:43;;;;;;;6.63;3.70;;;14.10;99.90;;;;;;5046695;28;20033;-83
2022/05/21 03:03:08;;;;;;;6.93;4.32;;;14.50;99.90;;;;;;5049592;28;20039;-80
2022/05/21 03:05:35;;;;;;;9.25;3.83;;;14.10;99.90;;;;;;5028217;28;20026;-79
2022/05/21 03:10:20;;;;;;;6.03;3.90;;;14.10;99.90;;;;;;5068420;28;20609;-78
2022/05/21 03:10:46;;;;;;;7.47;3.78;;;14.90;99.90;;;;;;5054613;28;20029;-81
2022/05/21 03:13:12;;;;;;;6.45;4.03;;;14.10;99.90;;;;;;5049853;28;20026;-79
2022/05/21 03:15:39;;;;;;;6.05;3.70;;;14.10;99.90;;;;;;5050113;28;20108;-82
2022/05/21 03:18:10;;;;;;;7.88;3.83;;;14.00;99.90;;;;;;5049609;28;20025;-79
2022/05/21 03:20:36;;;;;;;5.40;3.92;;;13.90;99.90;;;;;;5047997;28;20033;-79
2022/05/21 03:23:01;;;;;;;7.65;3.35;;;13.80;99.90;;;;;;5052128;28;20036;-79
2022/05/21 03:25:27;;;;;;;6.45;3.65;;;13.80;99.90;;;;;;5052360;28;20025;-80
2022/05/21 03:27:53;;;;;;;8.25;3.40;;;14.10;99.90;;;;;;5052961;28;20399;-82
2022/05/21 03:30:22;;;;;;;7.05;3.63;;;14.40;99.90;;;;;;5060770;28;20116;-81
2022/05/21 03:32:47;;;;;;;5.63;3.47;;;13.80;99.90;;;;;;5053322;28;20024;-83
2022/05/21 03:35:16;;;;;;;9.98;4.55;;;14.80;99.90;;;;;;5044957;28;20068;-83
2022/05/21 03:37:42;;;;;;;8.75;3.58;;;14.10;99.90;;;;;;5052678;28;20029;-83
2022/05/21 03:40:11;;;;;;;5.95;3.80;;;13.80;99.90;;;;;;5054889;28;20079;-82
2022/05/21 03:42:38;;;;;;;5.25;3.22;;;13.70;99.90;;;;;;5049412;28;20032;-81
2022/05/21 03:45:04;;;;;;;6.53;3.80;;;13.60;99.90;;;;;;5055362;28;20032;-84
2022/05/21 03:47:30;;;;;;;5.97;3.22;;;13.70;99.90;;;;;;5065602;28;20033;-81
2022/05/21 03:49:56;;;;;;;6.75;3.28;;;13.70;99.90;;;;;;5053559;28;20024;-81
2022/05/21 03:52:21;;;;;;;8.07;3.83;;;14.10;99.90;;;;;;5054699;28;20451;-80
2022/05/21 03:54:47;;;;;;;7.57;3.53;;;13.50;99.90;;;;;;5063692;28;20029;-81
2022/05/21 03:57:15;;;;;;;6.55;3.33;;;15.50;99.90;;;;;;5056035;28;20480;-84
2022/05/21 03:59:41;;;;;;;5.80;3.33;;;13.60;99.90;;;;;;5055144;28;20053;-80
2022/05/21 04:02:07;;;;;;;7.75;3.95;;;13.60;99.90;;;;;;5055823;28;20056;-80
2022/05/21 04:04:32;;;;;;;6.75;3.25;;;13.60;99.90;;;;;;5051323;28;20059;-81
2022/05/21 04:06:58;;;;;;;9.40;3.60;;;13.60;99.90;;;;;;5055952;28;20028;-81
2022/05/21 04:09:27;;;;;;;6.72;3.30;;;14.50;99.90;;;;;;5056434;28;20028;-81
2022/05/21 04:11:55;;;;;;;9.88;3.90;;;13.70;99.90;;;;;;5052016;28;20032;-80
2022/05/21 04:14:21;;;;;;;6.88;3.47;;;13.50;99.90;;;;;;5044204;28;20041;-83
2022/05/21 04:16:47;;;;;;;7.57;4.75;;;14.40;99.90;;;;;;5050235;28;20037;-80
2022/05/21 04:19:12;;;;;;;6.95;3.60;;;13.40;99.90;;;;;;5055892;28;20028;-78
2022/05/21 04:21:38;;;;;;;7.40;3.80;;;13.40;99.90;;;;;;5053697;28;20040;-79
2022/05/21 04:24:04;;;;;;;5.80;3.83;;;13.40;99.90;;;;;;5052746;28;20036;-82
2022/05/21 04:26:30;;;;;;;6.78;4.10;;;13.40;99.90;;;;;;5060576;28;20055;-82
2022/05/21 04:28:56;;;;;;;6.18;3.45;;;13.30;99.90;;;;;;5048926;28;20028;-81
2022/05/21 04:31:21;;;;;;;10.63;4.18;;;13.30;99.90;;;;;;5054623;28;20032;-83
2022/05/21 04:33:47;;;;;;;6.40;4.00;;;13.20;99.90;;;;;;5051411;28;20108;-81
2022/05/21 04:36:18;;;;;;;7.32;3.78;;;14.80;99.90;;;;;;5050311;28;20025;-80
2022/05/21 04:38:46;;;;;;;6.82;3.78;;;13.10;99.90;;;;;;5054224;28;20098;-83
2022/05/21 04:41:11;;;;;;;7.20;4.47;;;14.20;99.90;;;;;;5053977;28;20503;-83
2022/05/21 04:43:37;;;;;;;7.32;3.63;;;14.40;99.90;;;;;;5053229;28;20052;-80
2022/05/21 04:46:03;;;;;;;8.45;3.45;;;13.90;99.90;;;;;;5053255;28;20064;-79
2022/05/21 04:48:29;;;;;;;8.85;4.20;;;13.40;99.90;;;;;;5055248;28;20375;-82
2022/05/21 04:50:59;;;;;;;8.05;3.55;;;13.50;99.90;;;;;;5049868;28;20035;-79
2022/05/21 04:53:25;;;;;;;5.38;3.65;;;13.60;99.90;;;;;;5054888;28;20054;-81
2022/05/21 04:55:50;;;;;;;7.15;3.45;;;13.60;99.90;;;;;;5055388;28;20116;-81
2022/05/21 04:58:16;;;;;;;8.05;3.58;;;13.90;99.90;;;;;;5058530;28;20021;-81
2022/05/21 05:00:42;;;;;;;10.57;3.38;;;13.60;99.90;;;;;;5053772;28;20043;-83
2022/05/21 05:03:15;;;;;;;5.13;3.03;;;13.60;99.90;;;;;;5053246;28;20025;-81
2022/05/21 05:05:43;;;;;;;5.75;3.42;;;13.70;99.90;;;;;;5057667;28;20033;-81
2022/05/21 05:08:09;;;;;;;5.55;3.30;;;13.70;99.90;;;;;;5057515;28;20503;-83
2022/05/21 05:10:38;;;;;;;6.13;2.97;;;13.70;99.90;;;;;;5057375;28;20037;-82
2022/05/21 05:13:05;;;;;;;7.28;3.70;;;14.70;99.90;;;;;;5056625;28;20083;-83
2022/05/21 05:15:31;;;;;;;8.60;4.00;;;13.90;99.90;;;;;;5058763;28;20048;-81
2022/05/21 05:18:02;;;;;;;6.18;3.47;;;13.80;99.90;;;;;;5057674;28;20025;-82
2022/05/21 05:20:28;;;;;;;6.60;3.00;;;13.90;99.90;;;;;;5058245;28;20035;-82
2022/05/21 05:22:54;;;;;;;6.03;3.35;;;14.00;99.90;;;;;;5059078;28;20041;-82
2022/05/21 05:25:20;;;;;;;6.53;2.78;;;14.20;99.90;;;;;;5057227;28;20112;-83
2022/05/21 05:27:47;;;;;;;8.02;2.92;;;14.50;99.90;;;;;;5052582;28;20033;-83
2022/05/21 05:30:14;;;;;;;5.47;2.95;;;14.50;99.90;;;;;;5058919;28;20033;-84
2022/05/21 05:32:40;;;;;;;6.22;2.70;;;14.50;99.90;;;;;;5046907;28;20510;-81
2022/05/21 05:35:06;;;;;;;5.85;2.50;;;14.70;99.90;;;;;;5050091;28;20033;-81
2022/05/21 05:37:32;;;;;;;6.45;2.47;;;14.80;99.90;;;;;;5059337;28;20082;-82
2022/05/21 05:39:57;;;;;;;7.03;2.63;;;15.00;99.90;;;;;;5053521;28;20024;-82
2022/05/21 05:42:23;;;;;;;6.55;2.50;;;15.40;99.90;;;;;;5051096;28;20029;-81
2022/05/21 05:44:49;;;;;;;5.82;2.10;;;15.60;99.90;;;;;;5055280;28;20032;-81
2022/05/21 05:47:15;;;;;;;6.38;2.03;;;16.10;99.90;;;;;;5054112;28;20025;-82
2022/05/21 05:49:40;;;;;;;4.55;1.95;;;16.50;99.90;;;;;;5061664;28;20111;-82
2022/05/21 05:52:08;;;;;;;5.97;2.00;;;16.50;99.90;;;;;;5060042;28;20047;-81
2022/05/21 05:54:35;;;;;;;5.43;2.10;;;16.50;99.90;;;;;;5057919;28;20033;-83
2022/05/21 05:57:01;;;;;;;8.85;1.95;;;16.40;99.90;;;;;;5056620;28;20072;-83
2022/05/21 06:04:55;;;;;;;5.53;1.65;;;17.00;99.90;;;;;;5060245;28;20056;-84
2022/05/21 06:07:21;;;;;;;4.72;1.55;;;16.80;99.90;;;;;;5061153;28;20029;-84
2022/05/21 06:09:47;;;;;;;4.10;1.63;;;17.10;99.90;;;;;;5055392;28;20100;-85
2022/05/21 06:12:14;;;;;;;4.25;1.70;;;17.20;99.90;;;;;;5059744;28;20032;-83
2022/05/21 06:14:41;;;;;;;5.68;1.60;;;17.10;99.90;;;;;;5058477;28;20033;-80
2022/05/21 06:17:08;;;;;;;5.30;1.73;;;17.50;99.90;;;;;;5062158;28;20037;-83
2022/05/21 06:19:34;;;;;;;5.05;2.10;;;17.80;99.90;;;;;;5057640;28;20025;-83
2022/05/21 06:22:02;;;;;;;3.80;1.58;;;17.50;99.90;;;;;;5056143;28;20116;-78
2022/05/21 06:24:29;;;;;;;3.85;1.70;;;17.30;99.90;;;;;;5052986;28;20100;-81
2022/05/21 06:26:54;;;;;;;3.88;1.60;;;17.00;99.90;;;;;;5054318;28;20442;-84
2022/05/21 06:29:20;;;;;;;5.40;1.90;;;16.90;99.90;;;;;;5050584;28;20033;-83
2022/05/21 06:31:46;;;;;;;7.25;2.20;;;16.90;99.90;;;;;;5062574;28;20013;-81
2022/05/21 06:34:12;;;;;;;4.05;1.73;;;;;;;;;;5057385;28;20494;-82
2022/05/21 06:36:38;;;;;;;5.07;1.60;;;;;;;;;;5057033;28;20029;-83
2022/05/21 06:39:04;;;;;;;3.42;1.60;;;;;;;;;;5049028;28;20029;-83
2022/05/21 06:41:31;;;;;;;4.15;1.55;;;;;;;;;;5059922;28;20036;-83
2022/05/21 06:43:57;;;;;;;9.55;2.35;;;16.70;99.90;;;;;;5044383;28;20096;-83
2022/05/21 06:46:23;;;;;;;5.72;1.83;;;;;;;;;;5042266;28;20048;-87
2022/05/21 06:48:49;;;;;;;4.93;1.50;;;16.80;99.90;;;;;;5045648;28;20044;-83
2022/05/21 06:51:15;;;;;;;4.47;1.42;;;;;;;;;;5052263;28;20044;-83
2022/05/21 06:53:41;;;;;;;4.70;1.60;;;;;;;;;;5058873;28;20053;-85
2022/05/21 06:56:13;;;;;;;4.28;1.77;;;17.00;99.90;;;;;;5051942;28;20036;-80
2022/05/21 06:58:39;;;;;;;2.72;1.50;;;;;;;;;;5048983;28;20467;-82
2022/05/21 07:01:05;;;;;;;4.50;1.70;;;17.00;99.90;;;;;;5051050;28;20032;-79
2022/05/21 07:03:31;;;;;;;5.00;1.70;;;17.50;99.90;;;;;;5047532;28;20034;-83
2022/05/21 07:08:41;;;;;;;3.42;1.40;;;17.00;99.90;;;;;;5051682;28;20059;-80
2022/05/21 07:11:08;;;;;;;13.02;9.60;;;17.70;99.90;;;;;;5052060;28;20029;-80
2022/05/21 07:13:34;;;;;;;6.68;1.60;;;18.70;99.90;;;;;;5048732;28;20029;-85
2022/05/21 07:16:00;;;;;;;3.90;1.90;;;17.20;99.90;;;;;;5045502;28;20036;-85
2022/05/21 07:18:27;;;;;;;5.07;1.75;;;17.40;99.90;;;;;;5030977;28;20426;-82
2022/05/21 07:20:54;;;;;;;5.63;1.80;;;17.70;99.90;;;;;;5052581;28;20025;-80
2022/05/21 07:23:21;;;;;;;4.75;1.80;;;17.70;99.90;;;;;;5052825;28;20033;-82
2022/05/21 07:25:47;;;;;;;6.05;1.70;;;17.70;99.90;;;;;;5050505;28;20072;-81
2022/05/21 07:28:13;;;;;;;3.90;1.50;;;17.70;99.90;;;;;;5045334;28;20028;-83
2022/05/21 07:30:40;;;;;;;5.57;1.88;;;17.70;99.90;;;;;;5045905;28;20100;-84
2022/05/21 07:33:18;;;;;;;3.03;1.60;;;17.80;99.90;;;;;;5047963;28;20055;-83
2022/05/21 07:35:45;;;;;;;3.38;1.80;;;17.90;99.90;;;;;;5044751;28;20486;-81
2022/05/21 07:38:13;;;;;;;2.88;1.40;;;17.90;99.90;;;;;;5047811;28;20029;-81
2022/05/21 07:40:39;;;;;;;4.65;1.40;;;17.90;99.90;;;;;;5043613;28;20021;-83
2022/05/21 07:43:30;;;;;;;5.00;1.33;;;17.90;99.90;;;;;;5042593;28;21334;-84
2022/05/21 07:46:00;;;;;;;4.60;1.73;;;17.80;99.90;;;;;;5046678;28;20110;-83
2022/05/21 07:48:27;;;;;;;4.97;1.80;;;19.30;99.90;;;;;;5043455;28;20453;-83
2022/05/21 07:50:58;;;;;;;5.70;2.08;;;17.80;99.90;;;;;;5050988;28;20032;-84
2022/05/21 07:53:29;;;;;;;5.35;1.70;;;20.20;99.90;;;;;;5041646;28;20025;-84
2022/05/21 07:55:56;;;;;;;4.40;1.20;;;;;;;;;;5048190;28;20441;-83
2022/05/21 07:58:24;;;;;;;4.57;1.48;;;18.60;99.90;;;;;;5047835;28;20033;-83
2022/05/21 08:00:51;;;;;;;5.20;1.20;;;18.60;99.90;;;;;;5041524;28;20017;-86
2022/05/21 08:03:17;;;;;;;5.78;1.50;;;18.70;99.90;;;;;;5047837;28;21643;-84
2022/05/21 08:05:43;;;;;;;4.55;1.42;;;19.00;99.90;;;;;;5053954;28;20559;-80
2022/05/21 08:08:09;;;;;;;4.63;1.48;;;19.00;99.90;;;;;;5045742;28;20026;-84
2022/05/21 08:10:37;;;;;;;2.75;1.15;;;18.90;99.90;;;;;;5054626;28;20025;-83
2022/05/21 08:13:03;;;;;;;5.45;1.70;;;;;;;;;;5057440;28;20039;-83
2022/05/21 08:15:29;;;;;;;5.07;1.20;;;;;;;;;;5049995;28;20044;-83
2022/05/21 08:17:55;;;;;;;4.22;1.20;;;19.20;99.90;;;;;;5053477;28;20040;-82
2022/05/21 08:20:21;;;;;;;4.97;1.40;;;19.30;99.80;;;;;;5053941;28;20037;-83
2022/05/21 08:28:16;;;;;;;4.22;1.42;;;19.30;98.90;;;;;;5052569;28;20047;-83
2022/05/21 08:30:46;;;;;;;8.00;1.67;;;19.30;98.90;;;;;;5053466;28;20038;-82
2022/05/21 08:33:12;;;;;;;10.68;1.60;;;19.50;99.00;;;;;;5054191;28;20035;-81
2022/05/21 08:35:40;;;;;;;3.67;1.25;;;19.70;98.00;;;;;;5049950;28;20124;-83
2022/05/21 08:38:06;;;;;;;5.35;1.45;;;19.80;98.00;;;;;;5048479;28;20029;-81
2022/05/21 08:40:59;;;;;;;5.07;1.60;;;19.80;97.60;;;;;;5052238;28;20055;-82
2022/05/21 08:43:47;;;;;;;3.63;1.15;;;19.40;98.00;;;;;;5051128;28;20041;-82
2022/05/21 08:46:33;;;;;;;3.50;1.40;;;19.40;97.70;;;;;;5051060;28;20103;-82
2022/05/21 08:49:06;;;;;;;5.30;1.35;;;19.50;98.10;;;;;;5046751;28;20021;-83
2022/05/21 08:51:40;;;;;;;4.88;1.60;;;19.80;97.40;;;;;;5052621;28;20056;-85
2022/05/21 08:54:06;;;;;;;6.07;1.65;;;20.20;96.20;;;;;;5055751;28;20033;-83
2022/05/21 08:56:32;;;;;;;3.28;1.30;;;20.40;95.70;;;;;;5049760;28;20033;-81
2022/05/21 08:59:04;;;;;;;3.53;1.23;;;20.50;95.80;;;;;;5054041;28;20554;-84
2022/05/21 09:01:34;;;;;;;5.22;1.63;;;20.40;95.10;;;;;;5055982;28;20047;-83
2022/05/21 09:04:00;;;;;;;3.95;1.42;;;21.30;95.60;;;;;;5051414;28;20048;-82
2022/05/21 09:06:44;;;;;;;4.63;1.42;;;20.10;95.90;;;;;;5052840;28;20124;-84
2022/05/21 09:09:25;;;;;;;3.40;1.20;;;20.10;95.40;;;;;;5052277;28;20036;-82
2022/05/21 09:12:06;;;;;;;4.88;1.48;;;20.20;94.80;;;;;;5068157;28;20849;-85
2022/05/21 09:14:36;;;;;;;5.70;1.58;;;20.30;94.60;;;;;;5053183;28;20029;-82
2022/05/21 09:17:08;;;;;;;4.30;1.52;;;20.30;95.00;;;;;;5057463;28;20029;-82
2022/05/21 09:19:38;;;;;;;4.80;1.20;;;20.00;94.40;;;;;;5050145;28;20032;-82
2022/05/21 09:22:10;;;;;;;3.55;1.17;;;20.10;95.10;;;;;;5055717;28;20029;-81
2022/05/21 09:24:41;;;;;;;4.93;1.48;;;20.10;94.40;;;;;;5062886;28;20035;-82
2022/05/21 09:27:49;;;;;;;6.75;1.55;;;20.00;94.80;;;;;;5065629;28;20025;-84
2022/05/21 09:30:30;;;;;;;3.13;1.42;;;20.10;94.80;;;;;;5064231;28;20009;-81
2022/05/21 09:33:21;;;;;;;5.10;2.15;;;20.20;94.30;;;;;;5063668;28;20029;-83
2022/05/21 09:35:52;;;;;;;;;;;20.20;93.50;;;;;;5054329;28;20021;-79
2022/05/21 09:38:25;;;;;;;4.50;1.73;;;20.20;93.90;;;;;;5051889;28;20672;-81
2022/05/21 09:41:09;;;;;;;5.88;1.58;;;20.30;93.80;;;;;;5049594;28;20025;-83
2022/05/21 09:46:22;;;;;;;3.58;1.27;;;20.70;91.80;;;;;;5055086;28;20036;-83
2022/05/21 09:48:49;;;;;;;2.38;1.10;;;20.90;91.30;;;;;;5054376;28;20028;-84
2022/05/21 09:51:24;;;;;;;2.90;1.50;;;20.90;91.40;;;;;;5055825;28;20036;-84
2022/05/21 09:53:50;;;;;;;5.03;1.60;;;21.30;91.50;;;;;;5061766;28;20434;-80
2022/05/21 09:56:31;;;;;;;6.57;1.77;;;21.10;91.40;;;;;;5063178;28;20033;-82
2022/05/21 09:59:18;;;;;;;5.28;2.13;;;21.30;91.10;;;;;;5050395;28;20025;-80
2022/05/21 10:01:57;;;;;;;3.25;1.42;;;21.50;91.10;;;;;;5052976;28;20048;-83
2022/05/21 10:04:48;;;;;;;5.93;1.50;;;21.50;90.20;;;;;;5069003;28;20033;-83
2022/05/21 10:13:08;;;;;;;5.73;2.90;;;22.00;86.80;;;;;;5058441;28;20040;-81
2022/05/21 10:15:43;;;;;;;3.95;2.20;;;22.00;87.70;;;;;;5056964;28;20035;-83
2022/05/21 10:18:11;;;;;;;2.92;1.27;;;22.00;87.60;;;;;;5063899;28;20029;-83
2022/05/21 10:20:44;;;;;;;4.47;1.23;;;22.10;88.40;;;;;;5057040;28;20471;-83
2022/05/21 10:23:28;;;;;;;7.97;4.25;;;22.10;88.40;;;;;;5055934;28;20048;-82
2022/05/21 10:26:27;;;;;;;4.85;2.17;;;22.10;88.50;;;;;;5057046;28;20075;-82
2022/05/21 10:29:20;;;;;;;3.33;1.65;;;22.20;87.40;;;;;;5054006;28;20036;-83
2022/05/21 10:31:57;;;;;;;4.97;2.45;;;21.90;84.30;;;;;;5053805;28;20025;-84
2022/05/21 10:34:53;;;;;;;5.95;2.30;;;21.90;84.70;;;;;;5057008;28;20021;-85
2022/05/21 10:37:56;;;;;;;3.15;1.10;;;21.70;84.00;;;;;;5058748;28;20025;-84
2022/05/21 10:40:32;;;;;;;3.83;1.55;;;;;;;;;;5071371;28;20060;-82
2022/05/21 10:43:01;;;;;;;2.42;1.00;;;;;;;;;;5054688;28;20028;-83
2022/05/21 10:45:36;;;;;;;4.97;1.30;;;;;;;;;;5057563;28;20029;-82
2022/05/21 10:48:37;;;;;;;2.47;1.15;;;22.60;87.20;;;;;;5056867;28;20021;-82
2022/05/21 10:51:02;;;;;;;2.75;1.00;;;;;;;;;;5053527;28;20024;-82
2022/05/21 10:54:11;;;;;;;5.28;2.08;;;22.90;80.20;;;;;;5055292;28;20025;-84
2022/05/21 10:56:43;;;;;;;4.00;1.00;;;22.90;80.20;;;;;;5050483;28;20044;-83
2022/05/21 10:59:27;;;;;;;4.63;1.30;;;22.90;80.40;;;;;;5068568;28;20062;-83
2022/05/21 11:02:43;;;;;;;4.07;2.05;;;22.70;80.80;;;;;;5046454;28;20403;-83
2022/05/21 11:05:45;;;;;;;4.20;1.67;;;22.50;81.80;;;;;;5042185;28;20045;-83
2022/05/21 11:08:32;;;;;;;5.90;1.98;;;22.60;80.60;;;;;;5018707;28;20061;-85
2022/05/21 11:11:04;;;;;;;4.95;1.50;;;22.80;80.10;;;;;;5051799;28;20180;-81
2022/05/21 11:13:38;;;;;;;2.35;1.02;;;23.10;77.90;;;;;;5059466;28;20372;-82
2022/05/21 11:16:10;;;;;;;6.55;3.30;;;23.70;77.80;;;;;;5047614;28;20044;-83
2022/05/21 11:18:45;;;;;;;3.08;2.20;;;23.10;77.00;;;;;;5054232;28;20021;-85
2022/05/21 11:21:37;;;;;;;3.78;1.10;;;23.20;77.60;;;;;;5070111;28;20040;-83
2022/05/21 11:24:15;;;;;;;3.40;1.50;;;23.30;77.20;;;;;;5051117;28;20044;-81
2022/05/21 11:26:54;;;;;;;3.25;1.00;;;23.40;76.30;;;;;;5046415;28;20032;-85
2022/05/21 11:29:42;;;;;;;3.42;1.67;;;23.30;74.70;;;;;;5044322;28;20530;-81
2022/05/21 11:38:26;;;;;;;4.28;2.40;;;23.30;75.40;;;;;;5045980;28;20043;-83
2022/05/21 11:43:56;;;;;;;6.53;1.88;;;23.40;73.10;;;;;;5048551;28;20040;-82
2022/05/21 11:46:35;;;;;;;8.45;4.30;;;23.50;72.90;;;;;;5040208;28;20029;-82
2022/05/21 11:49:26;;;;;;;5.63;2.92;;;23.80;72.50;;;;;;5039953;28;20029;-83
2022/05/21 11:51:53;;;;;;;6.20;2.30;;;23.80;71.80;;;;;;5050490;28;20616;-81
2022/05/21 11:54:47;;;;;;;1.42;0.90;;;23.70;72.30;;;;;;5049822;28;20171;-82
2022/05/21 11:57:29;;;;;;;4.43;1.73;;;23.60;72.30;;;;;;5061663;28;20079;-82
2022/05/21 11:59:55;;;;;;;3.53;1.30;;;24.10;72.00;;;;;;5042033;28;20948;-81
2022/05/21 12:02:24;;;;;;;4.13;1.60;;;24.20;72.00;;;;;;5040308;28;20062;-81
2022/05/21 12:04:54;;;;;;;2.83;1.30;;;24.30;70.80;;;;;;5047556;28;20033;-82
2022/05/21 12:07:41;;;;;;;2.95;1.30;;;24.20;70.70;;;;;;5041574;28;20029;-79
2022/05/21 12:10:29;;;;;;;3.05;1.00;;;24.30;69.80;;;;;;5038756;28;20483;-81
2022/05/21 12:13:22;;;;;;;3.58;1.30;;;24.30;68.70;;;;;;5042778;28;20243;-81
2022/05/21 12:15:51;;;;;;;3.53;1.48;;;24.30;70.20;;;;;;5044261;28;20121;-81
2022/05/21 12:18:35;;;;;;;4.30;1.38;;;24.30;70.50;;;;;;5046174;28;20026;-81
2022/05/21 12:21:02;;;;;;;2.53;1.30;;;24.30;70.10;;;;;;5059906;28;20025;-81
2022/05/21 12:23:31;;;;;;;5.85;1.33;;;24.30;69.80;;;;;;5045974;28;20205;-81
2022/05/21 12:26:04;;;;;;;9.10;3.38;;;24.40;69.00;;;;;;5047374;28;20027;-84
2022/05/21 12:28:46;;;;;;;3.88;1.73;;;24.40;70.80;;;;;;5044446;28;20036;-83
2022/05/21 12:31:32;;;;;;;2.70;1.30;;;24.60;69.50;;;;;;5048191;28;20025;-80
2022/05/21 12:34:26;;;;;;;5.47;1.20;;;24.30;69.40;;;;;;5045875;28;20495;-82
2022/05/21 12:37:10;;;;;;;3.55;1.60;;;24.00;70.10;;;;;;5051044;28;20265;-81
2022/05/21 12:40:11;;;;;;;4.03;1.60;;;24.00;70.40;;;;;;5042987;28;20076;-79
2022/05/21 12:42:45;;;;;;;3.42;1.50;;;24.20;69.00;;;;;;5008339;28;20037;-82
2022/05/21 12:45:14;;;;;;;4.00;1.85;;;24.10;69.10;;;;;;5037274;28;21235;-81
2022/05/21 12:47:44;;;;;;;5.53;2.60;;;24.10;69.40;;;;;;5042606;28;20025;-82
2022/05/21 12:50:18;;;;;;;2.72;1.20;;;24.50;69.40;;;;;;5047597;28;20028;-81
2022/05/21 12:52:49;;;;;;;3.60;1.20;;;24.60;67.60;;;;;;5045382;28;20149;-81
2022/05/21 12:55:25;;;;;;;3.72;1.10;;;24.60;67.90;;;;;;5050529;28;20021;-82
2022/05/21 12:57:57;;;;;;;2.60;1.23;;;24.40;67.90;;;;;;5047329;28;20035;-82
2022/05/21 13:00:28;;;;;;;2.47;1.30;;;24.70;67.70;;;;;;5048687;28;20056;-81
2022/05/21 13:02:55;;;;;;;3.40;1.40;;;24.50;68.00;;;;;;5044807;28;20025;-83
2022/05/21 13:05:30;;;;;;;4.65;1.48;;;24.70;67.60;;;;;;5047284;28;20140;-80
2022/05/21 13:08:01;;;;;;;4.38;1.20;;;24.60;67.00;;;;;;5052101;28;20048;-84
2022/05/21 13:10:35;;;;;;;2.55;1.02;;;25.00;67.70;;;;;;5060427;28;20032;-85
2022/05/21 13:13:20;;;;;;;2.70;0.90;;;24.40;66.90;;;;;;5065847;28;20029;-85
2022/05/21 13:16:00;;;;;;;2.83;0.93;;;24.40;67.10;;;;;;5062294;28;20017;-83
2022/05/21 13:18:41;;;;;;;4.50;1.00;;;24.30;66.30;;;;;;5063985;28;20017;-82
2022/05/21 13:21:25;;;;;;;4.07;1.00;;;24.20;65.90;;;;;;5061831;28;20035;-81
2022/05/21 13:24:05;;;;;;;2.97;1.10;;;24.20;66.90;;;;;;5044671;28;20066;-81
2022/05/21 13:26:34;;;;;;;2.55;1.00;;;24.40;67.60;;;;;;5051962;28;20075;-83
2022/05/21 13:29:18;;;;;;;3.10;0.90;;;24.20;67.70;;;;;;5045802;28;20029;-84
2022/05/21 13:31:44;;;;;;;3.30;1.27;;;24.10;67.80;;;;;;5060528;28;20080;-82
2022/05/21 13:34:20;;;;;;;3.05;1.05;;;24.10;67.90;;;;;;5046213;28;20036;-82
2022/05/21 13:36:53;;;;;;;3.30;0.95;;;23.90;66.90;;;;;;5049986;28;20040;-83
2022/05/21 13:39:37;;;;;;;2.95;1.17;;;23.70;67.50;;;;;;5047914;28;20040;-82
2022/05/21 13:42:11;;;;;;;5.30;1.33;;;23.50;69.60;;;;;;5060271;28;20526;-82
2022/05/21 13:44:39;;;;;;;2.67;1.30;;;23.50;68.80;;;;;;5049526;28;20052;-81
2022/05/21 13:47:33;;;;;;;5.18;1.20;;;23.50;67.40;;;;;;5048413;28;20124;-81